createdAt,value
2022-08-29T00:00:49.329Z,100366.19
2022-08-29T00:03:17.771Z,100373.75
2022-08-29T00:05:49.949Z,100387.97
2022-08-29T00:08:17.495Z,100386.69
2022-08-29T00:10:44.295Z,100382.50
2022-08-29T00:13:12.086Z,100392.50
2022-08-29T00:15:44.827Z,100393.19
2022-08-29T00:18:13.360Z,100393.72
2022-08-29T00:20:40.707Z,100393.84
2022-08-29T00:23:07.977Z,100392.78
2022-08-29T00:25:35.266Z,100399.00
2022-08-29T00:28:02.457Z,100397.59
2022-08-29T00:30:30.135Z,100402.91
2022-08-29T00:32:56.926Z,100394.34
2022-08-29T00:35:27.647Z,100398.00
2022-08-29T00:37:55.223Z,100394.53
2022-08-29T00:40:28.789Z,100399.16
2022-08-29T00:42:55.945Z,100397.88
2022-08-29T00:45:23.789Z,100402.19
2022-08-29T00:48:08.786Z,100402.87
2022-08-29T00:50:40.055Z,100394.91
2022-08-29T00:53:10.680Z,100395.81
2022-08-29T00:55:40.316Z,100390.50
2022-08-29T00:58:14.383Z,100397.69
2022-08-29T01:00:42.854Z,100396.91
2022-08-29T01:03:09.653Z,100393.91
2022-08-29T01:05:37.616Z,100392.81
2022-08-29T01:08:05.828Z,100387.28
2022-08-29T01:10:51.922Z,100389.50
2022-08-29T01:13:18.811Z,100381.62
2022-08-29T01:15:47.178Z,100396.44
2022-08-29T01:18:16.203Z,100398.28
2022-08-29T01:21:15.193Z,100392.56
2022-08-29T01:23:50.863Z,100388.75
2022-08-29T01:26:17.662Z,100388.31
2022-08-29T01:28:49.596Z,100388.94
2022-08-29T01:31:42.186Z,100397.69
2022-08-29T01:34:11.184Z,100386.25
2022-08-29T01:36:53.852Z,100385.72
2022-08-29T01:39:23.371Z,100391.91
2022-08-29T01:41:50.508Z,100395.94
2022-08-29T01:44:22.314Z,100391.62
2022-08-29T01:46:51.310Z,100393.69
2022-08-29T01:49:19.505Z,100394.75
2022-08-29T01:51:46.494Z,100390.25
2022-08-29T01:54:14.204Z,100390.94
2022-08-29T01:56:44.616Z,100394.66
2022-08-29T01:59:15.914Z,100399.22
2022-08-29T02:01:48.530Z,100395.25
2022-08-29T02:04:15.725Z,100393.91
2022-08-29T02:06:43.090Z,100396.66
2022-08-29T02:09:11.210Z,100395.75
2022-08-29T02:11:40.057Z,100399.66
2022-08-29T02:14:08.068Z,100396.19
2022-08-29T02:16:43.069Z,100386.25
2022-08-29T02:19:09.871Z,100392.47
2022-08-29T02:21:36.607Z,100398.78
2022-08-29T02:24:23.952Z,100387.41
2022-08-29T02:26:51.924Z,100400.41
2022-08-29T02:29:18.713Z,100391.78
2022-08-29T02:31:45.531Z,100398.69
2022-08-29T02:34:13.146Z,100388.19
2022-08-29T02:36:41.534Z,100387.72
2022-08-29T02:39:10.074Z,100393.97
2022-08-29T02:41:38.054Z,100397.75
2022-08-29T02:44:05.224Z,100398.59
2022-08-29T02:46:32.555Z,100404.47
2022-08-29T02:49:00.733Z,100394.72
2022-08-29T02:51:30.957Z,100402.50
2022-08-29T02:53:58.343Z,100398.19
2022-08-29T02:56:25.836Z,100393.72
2022-08-29T02:58:52.828Z,100390.31
2022-08-29T03:01:21.886Z,100398.00
2022-08-29T03:03:50.563Z,100399.41
2022-08-29T03:06:18.593Z,100395.25
2022-08-29T03:08:45.800Z,100394.91
2022-08-29T03:11:12.564Z,100393.69
2022-08-29T03:13:39.459Z,100391.62
2022-08-29T03:16:06.365Z,100396.66
2022-08-29T03:18:33.257Z,100392.75
2022-08-29T03:21:00.304Z,100395.00
2022-08-29T03:23:27.095Z,100398.16
2022-08-29T03:25:55.139Z,100391.00
2022-08-29T03:28:21.866Z,100403.00
2022-08-29T03:30:48.748Z,100397.31
2022-08-29T03:33:15.856Z,100406.69
2022-08-29T03:35:43.135Z,100405.91
2022-08-29T03:38:10.011Z,100409.53
2022-08-29T03:40:37.129Z,100407.03
2022-08-29T03:43:03.997Z,100414.13
2022-08-29T03:45:30.831Z,100426.38
2022-08-29T03:47:57.615Z,100424.47
2022-08-29T03:50:24.633Z,100419.28
2022-08-29T03:52:52.072Z,100421.59
2022-08-29T03:55:20.413Z,100423.06
2022-08-29T03:57:47.670Z,100425.44
2022-08-29T04:00:17.482Z,100421.28
2022-08-29T04:02:46.951Z,100425.94
2022-08-29T04:05:16.917Z,100422.94
2022-08-29T04:07:57.330Z,100429.31
2022-08-29T04:10:28.201Z,100444.06
2022-08-29T04:12:55.162Z,100442.16
2022-08-29T04:15:24.208Z,100440.47
2022-08-29T04:17:54.569Z,100437.53
2022-08-29T04:20:25.393Z,100443.91
2022-08-29T04:22:54.444Z,100454.59
2022-08-29T04:25:22.691Z,100449.91
2022-08-29T04:27:49.819Z,100447.50
2022-08-29T04:30:19.969Z,100461.50
2022-08-29T04:32:47.473Z,100459.44
2022-08-29T04:35:15.981Z,100465.75
2022-08-29T04:37:43.981Z,100465.91
2022-08-29T04:40:18.423Z,100475.91
2022-08-29T04:42:47.261Z,100464.34
2022-08-29T04:45:18.050Z,100461.59
2022-08-29T04:47:45.176Z,100467.22
2022-08-29T04:50:15.534Z,100467.84
2022-08-29T04:52:43.994Z,100470.81
2022-08-29T04:55:12.369Z,100473.66
2022-08-29T04:57:40.239Z,100471.66
2022-08-29T05:00:14.019Z,100475.66
2022-08-29T05:02:42.550Z,100475.91
2022-08-29T05:05:11.430Z,100471.37
2022-08-29T05:07:38.669Z,100481.00
2022-08-29T05:10:11.588Z,100475.13
2022-08-29T05:12:38.332Z,100485.34
2022-08-29T05:15:07.009Z,100488.78
2022-08-29T05:17:33.858Z,100476.53
2022-08-29T05:20:01.239Z,100483.00
2022-08-29T05:22:27.989Z,100489.03
2022-08-29T05:24:57.125Z,100487.91
2022-08-29T05:27:24.289Z,100491.44
2022-08-29T05:29:51.951Z,100497.22
2022-08-29T05:32:19.724Z,100503.09
2022-08-29T05:34:48.350Z,100497.75
2022-08-29T05:37:19.593Z,100501.87
2022-08-29T05:39:47.750Z,100503.69
2022-08-29T05:42:17.202Z,100510.19
2022-08-29T05:44:44.298Z,100504.00
2022-08-29T05:47:13.620Z,100510.25
2022-08-29T05:49:42.579Z,100511.59
2022-08-29T05:52:10.687Z,100501.56
2022-08-29T05:54:40.590Z,100506.66
2022-08-29T05:57:15.369Z,100515.88
2022-08-29T05:59:45.091Z,100509.50
2022-08-29T06:02:12.713Z,100513.25
2022-08-29T06:04:39.867Z,100515.56
2022-08-29T06:07:07.739Z,100510.50
2022-08-29T06:09:36.040Z,100513.72
2022-08-29T06:12:03.463Z,100513.06
2022-08-29T06:14:30.271Z,100516.69
2022-08-29T06:16:57.316Z,100510.34
2022-08-29T06:19:24.639Z,100513.00
2022-08-29T06:21:54.418Z,100520.94
2022-08-29T06:24:21.320Z,100517.06
2022-08-29T06:26:48.074Z,100516.91
2022-08-29T06:29:16.145Z,100513.62
2022-08-29T06:31:43.220Z,100517.00
2022-08-29T06:34:10.089Z,100517.47
2022-08-29T06:36:37.636Z,100513.19
2022-08-29T06:39:07.489Z,100516.59
2022-08-29T06:41:36.017Z,100514.03
2022-08-29T06:44:03.591Z,100518.87
2022-08-29T06:46:32.511Z,100516.91
2022-08-29T06:49:02.030Z,100514.69
2022-08-29T06:51:33.062Z,100519.00
2022-08-29T06:54:01.475Z,100522.66
2022-08-29T06:56:29.866Z,100525.41
2022-08-29T06:58:56.944Z,100523.72
2022-08-29T07:01:24.305Z,100527.66
2022-08-29T07:03:54.711Z,100522.94
2022-08-29T07:06:21.885Z,100539.88
2022-08-29T07:08:55.891Z,100532.37
2022-08-29T07:11:24.730Z,100537.63
2022-08-29T07:13:51.787Z,100548.00
2022-08-29T07:16:19.264Z,100543.47
2022-08-29T07:18:47.089Z,100536.66
2022-08-29T07:21:20.337Z,100548.38
2022-08-29T07:23:48.549Z,100552.69
2022-08-29T07:26:18.116Z,100560.47
2022-08-29T07:28:47.243Z,100549.97
2022-08-29T07:31:14.718Z,100547.88
2022-08-29T07:33:41.569Z,100552.81
2022-08-29T07:36:08.908Z,100550.69
2022-08-29T07:38:36.127Z,100567.19
2022-08-29T07:41:08.497Z,100554.03
2022-08-29T07:43:36.267Z,100554.03
2022-08-29T07:46:11.822Z,100556.25
2022-08-29T07:48:39.666Z,100552.47
2022-08-29T07:51:12.076Z,100546.97
2022-08-29T07:53:40.426Z,100549.50
2022-08-29T07:56:09.366Z,100550.13
2022-08-29T07:58:36.667Z,100552.94
2022-08-29T08:01:04.603Z,100551.75
2022-08-29T08:03:32.926Z,100552.84
2022-08-29T08:06:00.273Z,100561.44
2022-08-29T08:08:33.774Z,100555.03
2022-08-29T08:11:01.509Z,100552.53
2022-08-29T08:13:28.908Z,100556.75
2022-08-29T08:15:55.846Z,100544.41
2022-08-29T08:18:23.202Z,100550.16
2022-08-29T08:20:50.036Z,100550.47
2022-08-29T08:23:18.971Z,100545.84
2022-08-29T08:25:46.196Z,100543.72
2022-08-29T08:28:17.274Z,100546.94
2022-08-29T08:30:44.667Z,100552.72
2022-08-29T08:33:11.964Z,100552.56
2022-08-29T08:35:42.016Z,100544.72
2022-08-29T08:38:09.307Z,100556.78
2022-08-29T08:40:44.466Z,100548.03
2022-08-29T08:43:21.374Z,100542.16
2022-08-29T08:45:55.576Z,100541.13
2022-08-29T08:48:26.232Z,100552.16
2022-08-29T08:51:21.967Z,100552.66
2022-08-29T08:53:52.956Z,100546.31
2022-08-29T08:56:26.905Z,100546.97
2022-08-29T08:59:32.637Z,100541.75
2022-08-29T09:02:06.521Z,100551.22
2022-08-29T09:04:59.988Z,100548.78
2022-08-29T09:07:37.102Z,100544.72
2022-08-29T09:10:30.500Z,100549.41
2022-08-29T09:13:09.486Z,100549.63
2022-08-29T09:15:46.228Z,100548.03
2022-08-29T09:18:31.462Z,100542.13
2022-08-29T09:21:06.608Z,100539.44
2022-08-29T09:23:47.268Z,100540.78
2022-08-29T09:26:20.495Z,100552.88
2022-08-29T09:28:48.678Z,100548.38
2022-08-29T09:31:27.249Z,100542.41
2022-08-29T09:34:03.864Z,100550.28
2022-08-29T09:36:52.800Z,100541.94
2022-08-29T09:39:31.567Z,100539.78
2022-08-29T09:42:21.908Z,100541.84
2022-08-29T09:44:57.945Z,100542.13
2022-08-29T09:47:29.966Z,100546.84
2022-08-29T09:50:21.236Z,100544.84
2022-08-29T09:52:56.048Z,100537.94
2022-08-29T09:55:31.226Z,100528.75
2022-08-29T09:58:29.736Z,100529.53
2022-08-29T10:01:16.720Z,100534.91
2022-08-29T10:04:00.747Z,100546.53
2022-08-29T10:06:32.410Z,100550.16
2022-08-29T10:09:26.904Z,100540.22
2022-08-29T10:12:01.206Z,100546.78
2022-08-29T10:14:41.360Z,100544.06
2022-08-29T10:17:41.937Z,100545.34
2022-08-29T10:20:11.833Z,100541.25
2022-08-29T10:22:52.416Z,100544.03
2022-08-29T10:25:27.163Z,100542.78
2022-08-29T10:27:56.794Z,100545.06
2022-08-29T10:30:29.638Z,100550.47
2022-08-29T10:33:04.869Z,100540.47
2022-08-29T10:35:34.596Z,100531.19
2022-08-29T10:38:15.088Z,100530.91
2022-08-29T10:40:47.917Z,100529.31
2022-08-29T10:43:20.696Z,100536.47
2022-08-29T10:46:08.811Z,100529.56
2022-08-29T10:48:45.658Z,100531.00
2022-08-29T10:51:31.658Z,100537.88
2022-08-29T10:54:07.248Z,100524.00
2022-08-29T10:56:41.025Z,100531.53
2022-08-29T10:59:19.956Z,100523.66
2022-08-29T11:01:57.576Z,100521.03
2022-08-29T11:04:33.447Z,100522.03
2022-08-29T11:07:06.738Z,100532.06
2022-08-29T11:09:43.316Z,100532.41
2022-08-29T11:12:25.873Z,100528.16
2022-08-29T11:15:02.392Z,100523.78
2022-08-29T11:17:34.670Z,100522.91
2022-08-29T11:20:17.667Z,100522.94
2022-08-29T11:23:01.946Z,100517.00
2022-08-29T11:25:32.816Z,100512.78
2022-08-29T11:28:08.610Z,100513.53
2022-08-29T11:30:59.327Z,100513.12
2022-08-29T11:33:32.850Z,100513.50
2022-08-29T11:36:30.624Z,100499.25
2022-08-29T11:39:23.421Z,100510.25
2022-08-29T11:41:58.493Z,100503.19
2022-08-29T11:44:34.146Z,100503.50
2022-08-29T11:47:02.048Z,100507.75
2022-08-29T11:49:43.192Z,100499.41
2022-08-29T11:52:11.100Z,100500.28
2022-08-29T11:54:48.213Z,100494.03
2022-08-29T11:57:16.567Z,100492.78
2022-08-29T11:59:49.397Z,100501.28
2022-08-29T12:02:28.565Z,100492.56
2022-08-29T12:04:59.727Z,100493.75
2022-08-29T12:07:35.157Z,100482.13
2022-08-29T12:10:07.950Z,100489.84
2022-08-29T12:12:44.024Z,100479.75
2022-08-29T12:15:32.811Z,100484.34
2022-08-29T12:18:09.418Z,100481.84
2022-08-29T12:20:45.875Z,100474.69
2022-08-29T12:23:15.787Z,100477.69
2022-08-29T12:25:45.415Z,100476.69
2022-08-29T12:28:20.617Z,100476.12
2022-08-29T12:30:47.368Z,100464.97
2022-08-29T12:33:49.594Z,100463.25
2022-08-29T12:36:38.116Z,100470.50
2022-08-29T12:39:20.909Z,100457.47
2022-08-29T12:42:17.649Z,100463.25
2022-08-29T12:44:49.939Z,100449.28
2022-08-29T12:47:27.916Z,100464.50
2022-08-29T12:49:58.859Z,100459.72
2022-08-29T12:52:35.716Z,100460.91
2022-08-29T12:55:28.759Z,100454.41
2022-08-29T12:57:57.727Z,100445.41
2022-08-29T13:00:31.193Z,100452.97
2022-08-29T13:03:09.636Z,100447.69
2022-08-29T13:05:43.163Z,100454.53
2022-08-29T13:08:33.346Z,100457.47
2022-08-29T13:11:03.131Z,100447.00
2022-08-29T13:13:30.367Z,100436.50
2022-08-29T13:16:01.718Z,100436.28
2022-08-29T13:18:31.262Z,100428.31
2022-08-29T13:21:14.667Z,100429.41
2022-08-29T13:23:46.201Z,100427.56
2022-08-29T13:26:14.289Z,100431.06
2022-08-29T13:28:49.046Z,100430.94
2022-08-29T13:31:15.853Z,100419.13
2022-08-29T13:33:48.806Z,100417.75
2022-08-29T13:36:27.898Z,100415.75
2022-08-29T13:39:25.088Z,100410.19
2022-08-29T13:41:57.917Z,100412.56
2022-08-29T13:44:29.707Z,100407.44
2022-08-29T13:46:59.643Z,100415.28
2022-08-29T13:49:36.640Z,100410.41
2022-08-29T13:52:07.827Z,100420.78
2022-08-29T13:54:39.354Z,100414.41
2022-08-29T13:57:09.604Z,100414.06
2022-08-29T13:59:36.976Z,100404.00
2022-08-29T14:02:10.498Z,100406.22
2022-08-29T14:04:39.809Z,100402.66
2022-08-29T14:07:11.961Z,100398.91
2022-08-29T14:09:42.027Z,100406.06
2022-08-29T14:12:10.097Z,100392.63
2022-08-29T14:14:36.846Z,100394.50
2022-08-29T14:17:04.464Z,100396.22
2022-08-29T14:19:32.471Z,100391.41
2022-08-29T14:22:00.642Z,100399.22
2022-08-29T14:24:31.168Z,100393.31
2022-08-29T14:27:01.713Z,100397.06
2022-08-29T14:29:30.851Z,100397.06
2022-08-29T14:31:59.147Z,100389.44
2022-08-29T14:34:32.353Z,100383.09
2022-08-29T14:37:00.599Z,100389.78
2022-08-29T14:39:27.675Z,100401.66
2022-08-29T14:41:55.084Z,100393.31
2022-08-29T14:44:22.612Z,100393.91
2022-08-29T14:46:50.271Z,100394.66
2022-08-29T14:49:18.191Z,100391.91
2022-08-29T14:51:45.057Z,100396.09
2022-08-29T14:54:12.587Z,100404.44
2022-08-29T14:56:48.708Z,100405.56
2022-08-29T14:59:15.990Z,100401.41
2022-08-29T15:01:43.155Z,100399.16
2022-08-29T15:04:11.181Z,100398.06
2022-08-29T15:06:38.608Z,100399.66
2022-08-29T15:09:06.202Z,100399.28
2022-08-29T15:11:33.152Z,100403.59
2022-08-29T15:14:04.339Z,100407.44
2022-08-29T15:16:32.717Z,100407.44
2022-08-29T15:19:40.602Z,100404.16
2022-08-29T15:21:49.898Z,100403.91
2022-08-29T15:24:16.687Z,100398.22
2022-08-29T15:26:45.047Z,100406.41
2022-08-29T15:29:12.077Z,100402.28
2022-08-29T15:31:38.889Z,100404.81
2022-08-29T15:34:06.337Z,100407.00
2022-08-29T15:36:34.361Z,100404.16
2022-08-29T15:39:05.057Z,100407.97
2022-08-29T15:41:32.816Z,100407.59
2022-08-29T15:43:59.957Z,100414.38
2022-08-29T15:46:27.034Z,100409.63
2022-08-29T15:48:54.237Z,100407.88
2022-08-29T15:51:21.727Z,100406.25
2022-08-29T15:53:48.611Z,100404.69
2022-08-29T15:56:15.507Z,100400.25
2022-08-29T15:58:44.066Z,100398.34
2022-08-29T16:01:12.426Z,100400.53
2022-08-29T16:03:39.227Z,100400.00
2022-08-29T16:06:06.479Z,100402.31
2022-08-29T16:08:33.313Z,100396.06
2022-08-29T16:11:01.038Z,100402.13
2022-08-29T16:13:27.919Z,100398.00
2022-08-29T16:15:55.014Z,100405.50
2022-08-29T16:18:21.936Z,100396.72
2022-08-29T16:20:48.706Z,100404.06
2022-08-29T16:23:17.112Z,100403.34
2022-08-29T16:25:44.831Z,100400.75
2022-08-29T16:28:11.943Z,100397.94
2022-08-29T16:30:45.946Z,100402.97
2022-08-29T16:33:13.699Z,100400.53
2022-08-29T16:35:40.646Z,100406.47
2022-08-29T16:38:07.437Z,100398.97
2022-08-29T16:40:34.511Z,100400.06
2022-08-29T16:43:02.932Z,100405.06
2022-08-29T16:45:30.950Z,100405.94
2022-08-29T16:47:57.895Z,100398.72
2022-08-29T16:50:25.775Z,100400.09
2022-08-29T16:52:52.925Z,100396.03
2022-08-29T16:55:20.248Z,100398.88
2022-08-29T16:58:07.093Z,100403.78
2022-08-29T17:00:34.467Z,100401.34
2022-08-29T17:03:01.527Z,100404.88
2022-08-29T17:05:28.555Z,100404.16
2022-08-29T17:07:55.246Z,100404.25
2022-08-29T17:10:22.178Z,100405.34
2022-08-29T17:12:48.924Z,100415.56
2022-08-29T17:15:15.806Z,100411.50
2022-08-29T17:17:42.938Z,100413.94
2022-08-29T17:20:11.685Z,100412.25
2022-08-29T17:22:38.533Z,100415.56
2022-08-29T17:25:05.859Z,100420.16
2022-08-29T17:27:32.870Z,100419.00
2022-08-29T17:29:59.600Z,100417.75
2022-08-29T17:32:26.346Z,100413.50
2022-08-29T17:34:53.136Z,100425.62
2022-08-29T17:37:19.944Z,100417.31
2022-08-29T17:39:46.726Z,100428.84
2022-08-29T17:42:14.541Z,100431.06
2022-08-29T17:44:41.892Z,100425.75
2022-08-29T17:47:08.707Z,100418.91
2022-08-29T17:49:35.468Z,100425.00
2022-08-29T17:52:02.606Z,100426.25
2022-08-29T17:54:29.508Z,100434.88
2022-08-29T17:57:00.256Z,100434.75
2022-08-29T17:59:30.658Z,100437.47
2022-08-29T18:01:58.852Z,100440.63
2022-08-29T18:04:27.037Z,100431.06
2022-08-29T18:06:57.341Z,100443.13
2022-08-29T18:09:24.716Z,100439.97
2022-08-29T18:11:53.047Z,100451.78
2022-08-29T18:14:22.765Z,100454.37
2022-08-29T18:16:50.641Z,100453.84
2022-08-29T18:19:18.213Z,100450.37
2022-08-29T18:21:45.805Z,100452.12
2022-08-29T18:24:15.186Z,100453.59
2022-08-29T18:26:43.459Z,100449.12
2022-08-29T18:29:11.047Z,100454.94
2022-08-29T18:31:37.917Z,100453.84
2022-08-29T18:34:04.933Z,100461.16
2022-08-29T18:36:33.643Z,100463.22
2022-08-29T18:39:02.575Z,100461.50
2022-08-29T18:41:29.884Z,100471.44
2022-08-29T18:43:57.387Z,100469.88
2022-08-29T18:46:24.470Z,100475.78
2022-08-29T18:48:52.067Z,100477.87
2022-08-29T18:51:19.898Z,100477.63
2022-08-29T18:53:47.656Z,100485.41
2022-08-29T18:56:14.964Z,100489.16
2022-08-29T18:58:44.402Z,100490.69
2022-08-29T19:01:13.760Z,100498.31
2022-08-29T19:03:41.820Z,100502.63
2022-08-29T19:06:08.717Z,100512.63
2022-08-29T19:08:36.605Z,100509.94
2022-08-29T19:11:06.867Z,100524.00
2022-08-29T19:13:37.971Z,100524.97
2022-08-29T19:16:10.168Z,100522.66
2022-08-29T19:18:37.387Z,100531.31
2022-08-29T19:21:07.547Z,100528.53
2022-08-29T19:23:36.338Z,100522.44
2022-08-29T19:26:07.565Z,100526.50
2022-08-29T19:28:35.064Z,100522.16
2022-08-29T19:31:02.489Z,100525.56
2022-08-29T19:33:29.564Z,100522.31
2022-08-29T19:35:56.444Z,100522.63
2022-08-29T19:38:24.161Z,100525.66
2022-08-29T19:40:57.094Z,100531.94
2022-08-29T19:43:31.176Z,100530.97
2022-08-29T19:45:59.098Z,100532.28
2022-08-29T19:48:27.086Z,100533.56
2022-08-29T19:50:54.547Z,100533.47
2022-08-29T19:53:26.230Z,100526.88
2022-08-29T19:55:55.768Z,100532.13
2022-08-29T19:58:31.060Z,100533.19
2022-08-29T20:01:07.012Z,100526.59
2022-08-29T20:03:37.648Z,100532.84
2022-08-29T20:06:07.584Z,100527.41
2022-08-29T20:08:39.935Z,100523.97
2022-08-29T20:11:06.928Z,100524.75
2022-08-29T20:13:35.915Z,100521.56
2022-08-29T20:16:09.709Z,100521.31
2022-08-29T20:18:40.577Z,100528.87
2022-08-29T20:21:07.708Z,100522.44
2022-08-29T20:23:34.629Z,100516.88
2022-08-29T20:26:01.764Z,100516.97
2022-08-29T20:28:30.932Z,100509.41
2022-08-29T20:30:58.178Z,100518.34
2022-08-29T20:33:25.654Z,100521.81
2022-08-29T20:36:11.449Z,100530.81
2022-08-29T20:38:38.213Z,100527.63
2022-08-29T20:41:05.146Z,100521.53
2022-08-29T20:43:32.098Z,100527.19
2022-08-29T20:45:59.935Z,100522.97
2022-08-29T20:48:31.454Z,100527.84
2022-08-29T20:51:02.854Z,100531.25
2022-08-29T20:53:32.415Z,100531.19
2022-08-29T20:56:01.071Z,100533.22
2022-08-29T20:58:30.297Z,100530.16
2022-08-29T21:00:59.674Z,100526.06
2022-08-29T21:03:45.278Z,100541.22
2022-08-29T21:06:12.931Z,100530.25
2022-08-29T21:08:41.148Z,100534.69
2022-08-29T21:11:08.186Z,100532.69
2022-08-29T21:13:35.037Z,100531.22
2022-08-29T21:16:02.096Z,100533.88
2022-08-29T21:18:28.877Z,100533.31
2022-08-29T21:20:55.777Z,100532.06
2022-08-29T21:23:24.650Z,100529.75
2022-08-29T21:25:56.416Z,100528.28
2022-08-29T21:28:25.046Z,100536.66
2022-08-29T21:30:52.220Z,100535.87
2022-08-29T21:33:20.011Z,100522.22
2022-08-29T21:35:47.038Z,100528.91
2022-08-29T21:38:17.359Z,100536.34
2022-08-29T21:40:51.041Z,100524.78
2022-08-29T21:43:19.610Z,100533.94
2022-08-29T21:45:47.429Z,100534.41
2022-08-29T21:48:14.211Z,100536.66
2022-08-29T21:50:41.005Z,100539.16
2022-08-29T21:53:07.724Z,100544.28
2022-08-29T21:55:34.526Z,100543.84
2022-08-29T21:58:01.980Z,100544.12
2022-08-29T22:00:34.423Z,100547.16
2022-08-29T22:03:03.806Z,100544.31
2022-08-29T22:05:31.350Z,100546.19
2022-08-29T22:07:58.369Z,100550.19
2022-08-29T22:10:28.388Z,100550.88
2022-08-29T22:12:55.459Z,100557.44
2022-08-29T22:15:42.514Z,100548.94
2022-08-29T22:18:09.627Z,100544.03
2022-08-29T22:20:38.516Z,100548.44
2022-08-29T22:23:05.878Z,100548.53
2022-08-29T22:25:32.947Z,100548.38
2022-08-29T22:27:59.825Z,100550.50
2022-08-29T22:30:32.092Z,100548.19
2022-08-29T22:33:00.505Z,100555.00
2022-08-29T22:35:28.681Z,100555.69
2022-08-29T22:37:55.897Z,100563.13
2022-08-29T22:40:23.699Z,100564.75
2022-08-29T22:42:50.486Z,100574.66
2022-08-29T22:45:19.025Z,100569.78
2022-08-29T22:47:47.137Z,100574.34
2022-08-29T22:50:21.447Z,100567.44
2022-08-29T22:52:49.197Z,100574.53
2022-08-29T22:57:47.997Z,100574.47
2022-08-29T23:00:20.137Z,100573.47
2022-08-29T23:02:47.293Z,100570.84
2022-08-29T23:05:15.274Z,100570.28
2022-08-29T23:07:42.092Z,100568.44
2022-08-29T23:10:10.214Z,100571.81
2022-08-29T23:12:37.497Z,100573.69
2022-08-29T23:15:10.293Z,100572.47
2022-08-29T23:17:37.317Z,100572.06
2022-08-29T23:20:06.577Z,100572.34
2022-08-29T23:22:33.756Z,100566.19
2022-08-29T23:25:04.651Z,100565.19
2022-08-29T23:27:33.570Z,100556.97
2022-08-29T23:30:01.653Z,100559.53
2022-08-29T23:32:28.797Z,100555.06
2022-08-29T23:34:55.856Z,100550.91
2022-08-29T23:37:22.828Z,100548.22
2022-08-29T23:39:49.632Z,100549.41
2022-08-29T23:42:16.501Z,100550.09
2022-08-29T23:44:43.351Z,100543.09
2022-08-29T23:47:10.202Z,100547.28
2022-08-29T23:49:36.965Z,100552.16
2022-08-29T23:52:04.697Z,100546.09
2022-08-29T23:54:32.546Z,100552.41
2022-08-29T23:56:59.338Z,100552.25
2022-08-29T23:59:44.867Z,100542.78
